Terminal Aerodrome Forecast
Issued by NWS Pueblo, CO

Home | Current Version | Previous Version | Text Only | Print | Product List | Glossary On
Versions: 1 2 3 4 5 6 7 8 9 10 11 12 13 14 15 16 17 18 19 20 21 22 23 24 25 26 27 28 29
000
FTUS45 KPUB 160521
TAFPUB
TAF
KPUB 160521Z 1606/1706 16003KT P6SM FEW025
     FM160800 12006KT 5SM BR OVC008
      TEMPO 1609/1613 3SM BR
     FM161500 VRB05KT P6SM FEW030
     FM161900 11010KT P6SM FEW040 SCT110 SCT150=

USA.gov is the U.S. government's official web portal to all federal, state and local government web resources and services.